createdAt,value
2017-06-29T00:00:36.786Z,16.30
2017-06-29T00:03:04.651Z,16.40
2017-06-29T00:05:31.635Z,16.50
2017-06-29T00:07:58.592Z,16.50
2017-06-29T00:10:25.584Z,16.50
2017-06-29T00:12:52.549Z,16.60
2017-06-29T00:15:19.500Z,16.60
2017-06-29T00:17:47.309Z,16.60
2017-06-29T00:20:14.249Z,16.60
2017-06-29T00:22:41.220Z,16.50
2017-06-29T00:25:08.168Z,16.50
2017-06-29T00:27:35.164Z,16.60
2017-06-29T00:30:02.132Z,16.60
2017-06-29T00:32:29.087Z,16.50
2017-06-29T00:34:56.084Z,16.50
2017-06-29T00:37:23.847Z,16.40
2017-06-29T00:39:51.578Z,16.50
2017-06-29T00:42:18.568Z,16.50
2017-06-29T00:44:45.524Z,16.40
2017-06-29T00:47:12.515Z,16.50
2017-06-29T00:49:39.486Z,16.50
2017-06-29T00:52:06.449Z,16.50
2017-06-29T00:54:34.201Z,16.50
2017-06-29T00:57:01.964Z,16.50
2017-06-29T00:59:28.919Z,16.50
2017-06-29T01:01:56.703Z,16.60
2017-06-29T01:04:23.700Z,16.60
2017-06-29T01:06:50.649Z,16.60
2017-06-29T01:09:17.629Z,16.60
2017-06-29T01:11:44.577Z,16.60
2017-06-29T01:14:11.600Z,16.60
2017-06-29T01:16:39.338Z,16.60
2017-06-29T01:19:06.289Z,16.60
2017-06-29T01:21:33.297Z,16.60
2017-06-29T01:24:00.344Z,16.60
2017-06-29T01:26:27.312Z,16.60
2017-06-29T01:28:54.304Z,16.60
2017-06-29T01:31:21.278Z,16.60
2017-06-29T01:33:48.264Z,16.60
2017-06-29T01:36:15.263Z,16.60
2017-06-29T01:38:42.227Z,16.60
2017-06-29T01:41:09.178Z,16.70
2017-06-29T01:43:36.158Z,16.80
2017-06-29T01:46:03.879Z,16.80
2017-06-29T01:48:30.891Z,16.80
2017-06-29T01:50:57.851Z,16.60
2017-06-29T01:53:24.839Z,16.50
2017-06-29T01:55:51.807Z,16.60
2017-06-29T01:58:19.581Z,16.60
2017-06-29T02:00:47.321Z,16.60
2017-06-29T02:03:14.330Z,16.50
2017-06-29T02:05:41.295Z,16.60
2017-06-29T02:08:08.236Z,16.50
2017-06-29T02:10:35.232Z,16.60
2017-06-29T02:13:02.187Z,16.70
2017-06-29T02:15:29.153Z,16.70
2017-06-29T02:17:56.199Z,16.90
2017-06-29T02:20:23.173Z,16.90
2017-06-29T02:22:50.109Z,17.00
2017-06-29T02:25:17.097Z,17.00
2017-06-29T02:27:44.818Z,17.10
2017-06-29T02:30:11.844Z,17.10
2017-06-29T02:32:38.811Z,17.10
2017-06-29T02:35:05.762Z,17.10
2017-06-29T02:37:32.743Z,17.10
2017-06-29T02:40:00.467Z,17.10
2017-06-29T02:42:27.459Z,17.10
2017-06-29T02:44:54.423Z,17.10
2017-06-29T02:47:21.420Z,17.20
2017-06-29T02:49:48.392Z,17.10
2017-06-29T02:52:15.382Z,17.20
2017-06-29T02:54:42.340Z,17.20
2017-06-29T02:57:09.327Z,17.10
2017-06-29T02:59:37.045Z,17.10
2017-06-29T03:02:04.040Z,17.10
2017-06-29T03:04:30.998Z,17.10
2017-06-29T03:06:58.061Z,17.10
2017-06-29T03:09:25.020Z,17.10
2017-06-29T03:11:52.023Z,17.10
2017-06-29T03:14:18.984Z,17.10
2017-06-29T03:16:45.988Z,17.10
2017-06-29T03:19:13.020Z,17.10
2017-06-29T03:21:40.028Z,17.20
2017-06-29T03:24:06.984Z,17.10
2017-06-29T03:26:33.943Z,17.10
2017-06-29T03:29:00.947Z,17.20
2017-06-29T03:31:27.900Z,17.20
2017-06-29T03:33:54.857Z,17.20
2017-06-29T03:36:21.851Z,17.40
2017-06-29T03:38:48.815Z,17.40
2017-06-29T03:41:16.562Z,17.40
2017-06-29T03:43:43.522Z,17.40
2017-06-29T03:46:11.252Z,17.40
2017-06-29T03:48:38.236Z,17.40
2017-06-29T03:51:05.195Z,17.40
2017-06-29T03:53:32.178Z,17.50
2017-06-29T03:55:59.117Z,17.50
2017-06-29T03:58:26.101Z,17.50
2017-06-29T04:00:53.052Z,17.60
2017-06-29T04:03:20.785Z,17.60
2017-06-29T04:05:47.734Z,17.60
2017-06-29T04:08:14.719Z,17.60
2017-06-29T04:10:41.680Z,17.60
2017-06-29T04:13:08.691Z,17.60
2017-06-29T04:15:36.428Z,17.60
2017-06-29T04:18:03.374Z,17.60
2017-06-29T04:20:30.364Z,17.60
2017-06-29T04:22:57.323Z,17.60
2017-06-29T04:25:24.313Z,17.70
2017-06-29T04:27:51.258Z,17.60
2017-06-29T04:30:18.237Z,17.60
2017-06-29T04:32:45.964Z,17.80
2017-06-29T04:35:12.972Z,17.70
2017-06-29T04:37:39.931Z,17.80
2017-06-29T04:40:06.928Z,17.70
2017-06-29T04:42:34.664Z,17.70
2017-06-29T04:45:01.627Z,17.70
2017-06-29T04:47:29.391Z,18.00
2017-06-29T04:49:57.101Z,18.00
2017-06-29T04:52:24.098Z,18.00
2017-06-29T04:54:51.091Z,18.20
2017-06-29T04:57:18.066Z,18.30
2017-06-29T04:59:45.023Z,18.30
2017-06-29T05:02:12.158Z,18.20
2017-06-29T05:04:39.119Z,18.30
2017-06-29T05:07:06.081Z,18.40
2017-06-29T05:12:18.191Z,18.60
2017-06-29T05:14:45.157Z,18.70
2017-06-29T05:17:12.117Z,18.50
2017-06-29T05:19:39.107Z,18.70
2017-06-29T05:22:06.072Z,18.90
2017-06-29T05:24:33.072Z,19.00
2017-06-29T05:27:00.031Z,19.00
2017-06-29T05:29:27.025Z,19.20
2017-06-29T05:31:55.732Z,19.20
2017-06-29T05:34:22.703Z,19.10
2017-06-29T05:36:49.702Z,19.20
2017-06-29T05:39:17.507Z,19.30
2017-06-29T05:41:44.485Z,19.30
2017-06-29T05:44:11.441Z,19.40
2017-06-29T05:46:38.429Z,19.30
2017-06-29T05:49:05.365Z,19.30
2017-06-29T05:51:32.356Z,19.30
2017-06-29T05:53:59.369Z,19.30
2017-06-29T05:56:26.372Z,19.40
2017-06-29T05:58:53.378Z,19.40
2017-06-29T06:01:20.343Z,19.40
2017-06-29T06:03:47.340Z,19.60
2017-06-29T06:06:14.296Z,19.70
2017-06-29T06:08:41.307Z,19.70
2017-06-29T06:11:09.079Z,19.90
2017-06-29T06:13:36.785Z,20.10
2017-06-29T06:16:03.784Z,20.10
2017-06-29T06:18:31.516Z,20.40
2017-06-29T06:20:58.500Z,20.40
2017-06-29T06:23:26.219Z,20.00
2017-06-29T06:25:53.189Z,20.00
2017-06-29T06:28:20.152Z,20.20
2017-06-29T06:30:47.117Z,19.90
2017-06-29T06:33:14.054Z,19.70
2017-06-29T06:35:41.009Z,19.50
2017-06-29T06:38:07.972Z,19.40
2017-06-29T06:40:34.979Z,19.60
2017-06-29T06:43:01.948Z,20.10
2017-06-29T06:45:28.925Z,20.30
2017-06-29T06:47:55.924Z,20.30
2017-06-29T06:50:22.885Z,19.60
2017-06-29T06:52:49.875Z,19.60
2017-06-29T06:55:16.848Z,19.90
2017-06-29T06:57:43.834Z,20.10
2017-06-29T07:00:10.789Z,20.20
2017-06-29T07:02:37.795Z,20.00
2017-06-29T07:05:04.976Z,20.10
2017-06-29T07:07:32.197Z,20.20
2017-06-29T07:09:59.185Z,20.10
2017-06-29T07:12:26.144Z,20.30
2017-06-29T07:14:53.135Z,20.30
2017-06-29T07:17:20.099Z,20.40
2017-06-29T07:19:47.069Z,20.70
2017-06-29T07:22:14.021Z,21.10
2017-06-29T07:24:41.015Z,21.50
2017-06-29T07:27:07.975Z,21.60
2017-06-29T07:29:34.975Z,21.80
2017-06-29T07:32:01.943Z,21.80
2017-06-29T07:34:29.717Z,22.10
2017-06-29T07:36:56.736Z,22.00
2017-06-29T07:39:23.702Z,22.20
2017-06-29T07:41:50.705Z,22.00
2017-06-29T07:44:17.653Z,22.10
2017-06-29T07:46:44.638Z,22.30
2017-06-29T07:49:11.595Z,22.10
2017-06-29T07:51:38.580Z,22.20
2017-06-29T07:54:05.547Z,22.10
2017-06-29T07:56:32.544Z,22.30
2017-06-29T07:58:59.527Z,22.10
2017-06-29T08:01:26.516Z,22.00
2017-06-29T08:03:53.573Z,21.90
2017-06-29T08:06:20.532Z,22.00
2017-06-29T08:08:47.501Z,22.20
2017-06-29T08:11:14.441Z,22.40
2017-06-29T08:13:41.405Z,22.30
2017-06-29T08:16:08.348Z,22.10
2017-06-29T08:18:35.340Z,21.90
2017-06-29T08:21:02.322Z,22.00
2017-06-29T08:23:29.293Z,21.90
2017-06-29T08:25:56.276Z,21.70
2017-06-29T08:28:23.241Z,21.70
2017-06-29T08:30:50.224Z,21.90
2017-06-29T08:33:17.187Z,21.80
2017-06-29T08:35:44.931Z,22.20
2017-06-29T08:38:11.897Z,22.20
2017-06-29T08:40:40.034Z,22.30
2017-06-29T08:43:07.008Z,22.30
2017-06-29T08:45:34.737Z,23.00
2017-06-29T08:48:01.721Z,23.00
2017-06-29T08:50:29.488Z,22.40
2017-06-29T08:52:57.211Z,22.30
2017-06-29T08:55:24.168Z,22.30
2017-06-29T08:57:51.152Z,22.30
2017-06-29T09:00:18.111Z,22.20
2017-06-29T09:02:45.115Z,22.70
2017-06-29T09:05:12.854Z,22.30
2017-06-29T09:07:39.812Z,22.20
2017-06-29T09:10:06.754Z,22.60
2017-06-29T09:12:33.717Z,22.60
2017-06-29T09:15:00.666Z,22.70
2017-06-29T09:17:28.420Z,22.70
2017-06-29T09:19:55.364Z,22.80
2017-06-29T09:22:22.344Z,22.20
2017-06-29T09:24:49.308Z,22.50
2017-06-29T09:27:16.294Z,22.30
2017-06-29T09:29:43.256Z,22.10
2017-06-29T09:32:11.020Z,21.80
2017-06-29T09:34:38.752Z,21.60
2017-06-29T09:37:05.744Z,21.60
2017-06-29T09:39:33.465Z,21.60
2017-06-29T09:42:00.460Z,21.60
2017-06-29T09:44:27.453Z,21.60
2017-06-29T09:46:54.435Z,21.60
2017-06-29T09:49:22.166Z,21.90
2017-06-29T09:51:49.169Z,21.90
2017-06-29T09:54:16.129Z,22.10
2017-06-29T09:56:43.136Z,22.50
2017-06-29T09:59:10.871Z,22.40
2017-06-29T10:01:37.827Z,22.40
2017-06-29T10:04:04.812Z,22.30
2017-06-29T10:06:31.785Z,22.40
2017-06-29T10:08:58.780Z,22.40
2017-06-29T10:11:25.729Z,22.40
2017-06-29T10:13:53.474Z,22.50
2017-06-29T10:16:20.421Z,22.50
2017-06-29T10:18:47.436Z,22.20
2017-06-29T10:21:14.468Z,22.20
2017-06-29T10:23:41.425Z,22.30
2017-06-29T10:26:08.425Z,22.50
2017-06-29T10:28:36.152Z,22.90
2017-06-29T10:31:03.139Z,22.90
2017-06-29T10:33:30.096Z,22.80
2017-06-29T10:35:57.079Z,23.00
2017-06-29T10:38:24.034Z,22.70
2017-06-29T10:40:51.011Z,22.50
2017-06-29T10:43:18.735Z,22.70
2017-06-29T10:45:45.739Z,22.70
2017-06-29T10:48:12.729Z,23.20
2017-06-29T10:50:39.687Z,23.00
2017-06-29T10:53:06.675Z,22.90
2017-06-29T10:55:33.649Z,22.80
2017-06-29T10:58:00.608Z,23.30
2017-06-29T11:00:27.563Z,23.40
2017-06-29T11:02:54.545Z,23.50
2017-06-29T11:05:21.503Z,23.00
2017-06-29T11:07:48.484Z,23.00
2017-06-29T11:10:15.453Z,23.20
2017-06-29T11:12:42.449Z,23.70
2017-06-29T11:15:09.386Z,23.60
2017-06-29T11:17:36.343Z,23.90
2017-06-29T11:20:03.332Z,23.60
2017-06-29T11:22:30.298Z,23.30
2017-06-29T11:24:57.292Z,23.40
2017-06-29T11:27:24.260Z,23.50
2017-06-29T11:29:51.247Z,23.60
2017-06-29T11:32:18.216Z,23.60
2017-06-29T11:34:45.204Z,23.60
2017-06-29T11:37:12.183Z,23.30
2017-06-29T11:39:39.171Z,23.10
2017-06-29T11:42:06.127Z,23.30
2017-06-29T11:44:33.108Z,23.60
2017-06-29T11:47:00.051Z,23.60
2017-06-29T11:49:27.024Z,23.60
2017-06-29T11:51:53.960Z,24.00
2017-06-29T11:54:20.944Z,24.20
2017-06-29T11:56:47.925Z,23.80
2017-06-29T11:59:15.883Z,23.50
2017-06-29T12:01:43.611Z,23.50
2017-06-29T12:04:10.572Z,23.50
2017-06-29T12:06:37.580Z,23.40
2017-06-29T12:09:04.548Z,23.40
2017-06-29T12:11:31.517Z,23.50
2017-06-29T12:13:58.515Z,23.40
2017-06-29T12:16:25.472Z,23.30
2017-06-29T12:18:52.460Z,22.80
2017-06-29T12:21:19.600Z,22.80
2017-06-29T12:23:46.603Z,22.70
2017-06-29T12:26:13.583Z,23.00
2017-06-29T12:28:40.563Z,22.80
2017-06-29T12:31:08.295Z,22.80
2017-06-29T12:33:35.304Z,22.80
2017-06-29T12:36:02.288Z,23.00
2017-06-29T12:38:29.267Z,23.40
2017-06-29T12:40:57.195Z,23.70
2017-06-29T12:43:24.193Z,23.10
2017-06-29T12:45:51.152Z,23.30
2017-06-29T12:48:18.139Z,22.80
2017-06-29T12:50:45.099Z,22.70
2017-06-29T12:53:12.090Z,22.40
2017-06-29T12:55:39.046Z,21.70
2017-06-29T12:58:06.047Z,21.40
2017-06-29T13:00:33.038Z,21.20
2017-06-29T13:03:00.037Z,20.70
2017-06-29T13:05:27.864Z,20.50
2017-06-29T13:07:54.864Z,20.40
2017-06-29T13:10:21.834Z,20.20
2017-06-29T13:12:48.792Z,20.00
2017-06-29T13:15:15.775Z,19.90
2017-06-29T13:17:42.732Z,19.70
2017-06-29T13:20:10.489Z,19.50
2017-06-29T13:22:37.457Z,19.50
2017-06-29T13:25:04.413Z,19.20
2017-06-29T13:27:31.376Z,19.30
2017-06-29T13:29:58.364Z,19.30
2017-06-29T13:32:25.324Z,19.20
2017-06-29T13:34:53.065Z,19.20
2017-06-29T13:37:20.027Z,19.20
2017-06-29T13:39:47.769Z,19.10
2017-06-29T13:42:14.710Z,19.10
2017-06-29T13:44:41.692Z,19.00
2017-06-29T13:47:09.419Z,18.90
2017-06-29T13:49:36.375Z,18.90
2017-06-29T13:52:03.504Z,19.20
2017-06-29T13:54:30.508Z,19.50
2017-06-29T13:56:57.477Z,19.20
2017-06-29T13:59:24.432Z,19.00
2017-06-29T14:01:51.418Z,18.80
2017-06-29T14:04:19.129Z,18.60
2017-06-29T14:06:46.107Z,18.60
2017-06-29T14:09:13.057Z,18.50
2017-06-29T14:11:40.065Z,18.50
2017-06-29T14:14:07.028Z,18.60
2017-06-29T14:16:34.013Z,18.40
2017-06-29T14:19:01.732Z,18.30
2017-06-29T14:21:28.741Z,18.30
2017-06-29T14:23:55.709Z,18.40
2017-06-29T14:26:22.720Z,18.30
2017-06-29T14:28:50.480Z,18.40
2017-06-29T14:31:17.440Z,18.40
2017-06-29T14:33:44.405Z,18.70
2017-06-29T14:36:11.421Z,18.90
2017-06-29T14:38:38.362Z,18.80
2017-06-29T14:41:06.077Z,18.90
2017-06-29T14:43:33.064Z,18.90
2017-06-29T14:46:00.772Z,18.60
2017-06-29T14:48:27.743Z,18.60
2017-06-29T14:50:54.704Z,18.40
2017-06-29T14:53:21.665Z,18.30
2017-06-29T14:55:49.387Z,18.30
2017-06-29T14:58:16.366Z,18.30
2017-06-29T15:00:44.108Z,18.50
2017-06-29T15:03:11.451Z,18.40
2017-06-29T15:05:38.415Z,18.40
2017-06-29T15:08:05.380Z,18.30
2017-06-29T15:10:33.127Z,18.00
2017-06-29T15:15:44.516Z,18.00
2017-06-29T15:18:11.475Z,18.00
2017-06-29T15:20:38.479Z,17.70
2017-06-29T15:23:05.448Z,17.70
2017-06-29T15:25:32.455Z,17.80
2017-06-29T15:27:59.404Z,17.60
2017-06-29T15:30:26.354Z,17.80
2017-06-29T15:32:53.331Z,17.70
2017-06-29T15:35:20.299Z,17.70
2017-06-29T15:37:48.082Z,17.40
2017-06-29T15:40:15.036Z,17.40
2017-06-29T15:42:41.998Z,17.40
2017-06-29T15:45:09.049Z,17.50
2017-06-29T15:47:36.027Z,17.60
2017-06-29T15:50:02.982Z,17.50
2017-06-29T15:52:29.989Z,17.60
2017-06-29T15:54:56.928Z,17.60
2017-06-29T15:57:23.892Z,17.50
2017-06-29T15:59:50.879Z,17.50
2017-06-29T16:02:18.604Z,17.40
2017-06-29T16:04:45.537Z,17.40
2017-06-29T16:07:12.502Z,17.40
2017-06-29T16:09:39.445Z,17.40
2017-06-29T16:12:06.430Z,17.50
2017-06-29T16:14:33.373Z,17.40
2017-06-29T16:17:01.091Z,17.30
2017-06-29T16:19:28.075Z,17.30
2017-06-29T16:21:55.797Z,17.10
2017-06-29T16:24:22.780Z,17.10
2017-06-29T16:26:49.748Z,17.10
2017-06-29T16:29:16.747Z,17.00
2017-06-29T16:31:43.703Z,17.10
2017-06-29T16:34:10.658Z,17.00
2017-06-29T16:36:37.635Z,16.90
2017-06-29T16:39:04.587Z,16.90
2017-06-29T16:41:31.687Z,16.80
2017-06-29T16:43:58.625Z,16.70
2017-06-29T16:46:25.576Z,16.50
2017-06-29T16:48:52.544Z,16.60
2017-06-29T16:51:20.263Z,16.50
2017-06-29T16:53:47.217Z,16.50
2017-06-29T16:56:14.170Z,16.40
2017-06-29T16:58:41.182Z,16.40
2017-06-29T17:01:08.131Z,16.50
2017-06-29T17:03:35.084Z,16.50
2017-06-29T17:06:02.021Z,16.50
2017-06-29T17:08:29.022Z,16.60
2017-06-29T17:10:56.015Z,16.60
2017-06-29T17:13:22.952Z,16.40
2017-06-29T17:15:49.944Z,16.40
2017-06-29T17:18:16.890Z,16.30
2017-06-29T17:20:44.699Z,16.40
2017-06-29T17:23:11.658Z,16.30
2017-06-29T17:25:38.616Z,16.40
2017-06-29T17:28:05.607Z,16.30
2017-06-29T17:30:32.580Z,16.30
2017-06-29T17:33:01.778Z,16.30
2017-06-29T17:35:28.712Z,16.30
2017-06-29T17:37:55.687Z,16.20
2017-06-29T17:40:22.650Z,16.20
2017-06-29T17:42:49.623Z,16.30
2017-06-29T17:45:17.339Z,16.30
2017-06-29T17:47:44.327Z,16.30
2017-06-29T17:50:12.054Z,16.20
2017-06-29T17:52:39.004Z,16.20
2017-06-29T17:55:05.953Z,16.30
2017-06-29T17:57:32.917Z,16.40
2017-06-29T18:00:00.653Z,16.30
2017-06-29T18:02:27.599Z,16.30
2017-06-29T18:04:54.637Z,16.20
2017-06-29T18:07:21.595Z,16.20
2017-06-29T18:09:48.550Z,16.10
2017-06-29T18:12:15.547Z,16.20
2017-06-29T18:14:42.806Z,16.10
2017-06-29T18:17:09.814Z,16.10
2017-06-29T18:19:36.780Z,16.10
2017-06-29T18:22:03.737Z,16.20
2017-06-29T18:24:30.701Z,16.20
2017-06-29T18:26:57.636Z,16.20
2017-06-29T18:29:24.630Z,16.20
2017-06-29T18:31:52.347Z,16.10
2017-06-29T18:34:19.308Z,16.10
2017-06-29T18:36:46.257Z,16.10
2017-06-29T18:39:13.215Z,16.00
2017-06-29T18:41:40.198Z,16.00
2017-06-29T18:44:07.194Z,16.10
2017-06-29T18:46:34.168Z,16.00
2017-06-29T18:49:01.904Z,16.00
2017-06-29T18:51:28.876Z,15.90
2017-06-29T18:53:55.968Z,16.00
2017-06-29T18:56:22.951Z,16.00
2017-06-29T18:58:49.912Z,16.00
2017-06-29T19:01:17.633Z,16.10
2017-06-29T19:03:44.612Z,16.10
2017-06-29T19:06:11.565Z,16.10
2017-06-29T19:08:38.568Z,16.10
2017-06-29T19:11:05.523Z,16.10
2017-06-29T19:13:32.467Z,16.10
2017-06-29T19:15:59.451Z,16.20
2017-06-29T19:18:27.169Z,16.40
2017-06-29T19:20:54.187Z,16.40
2017-06-29T19:23:21.124Z,16.40
2017-06-29T19:25:48.311Z,16.30
2017-06-29T19:28:15.548Z,16.20
2017-06-29T19:30:42.480Z,16.20
2017-06-29T19:33:09.437Z,16.10
2017-06-29T19:35:36.391Z,16.10
2017-06-29T19:38:03.395Z,16.10
2017-06-29T19:40:31.117Z,16.00
2017-06-29T19:42:58.066Z,16.00
2017-06-29T19:45:25.064Z,16.00
2017-06-29T19:47:52.012Z,16.10
2017-06-29T19:50:19.855Z,16.10
2017-06-29T19:52:47.565Z,16.00
2017-06-29T19:55:14.554Z,16.00
2017-06-29T19:57:42.292Z,16.10
2017-06-29T20:00:09.233Z,16.10
2017-06-29T20:02:36.223Z,16.10
2017-06-29T20:05:03.165Z,16.10
2017-06-29T20:07:30.117Z,16.00
2017-06-29T20:09:57.074Z,16.00
2017-06-29T20:12:24.047Z,16.00
2017-06-29T20:14:51.082Z,16.00
2017-06-29T20:17:18.055Z,16.00
2017-06-29T20:19:45.886Z,16.00
2017-06-29T20:22:12.875Z,16.10
2017-06-29T20:24:39.808Z,16.00
2017-06-29T20:27:06.799Z,16.00
2017-06-29T20:29:33.740Z,15.90
2017-06-29T20:32:00.675Z,15.90
2017-06-29T20:34:27.659Z,15.90
2017-06-29T20:36:54.639Z,15.90
2017-06-29T20:39:21.576Z,15.90
2017-06-29T20:41:48.700Z,16.00
2017-06-29T20:44:15.691Z,16.00
2017-06-29T20:46:42.651Z,16.00
2017-06-29T20:49:09.627Z,16.00
2017-06-29T20:51:36.576Z,16.00
2017-06-29T20:54:03.552Z,16.10
2017-06-29T20:56:30.572Z,16.00
2017-06-29T20:58:57.504Z,16.10
2017-06-29T21:01:24.515Z,16.00
2017-06-29T21:03:51.462Z,16.10
2017-06-29T21:06:19.275Z,16.10
2017-06-29T21:08:46.233Z,16.00
2017-06-29T21:11:13.187Z,16.00
2017-06-29T21:13:40.159Z,16.00
2017-06-29T21:16:07.972Z,16.10
2017-06-29T21:18:34.938Z,16.10
2017-06-29T21:21:01.879Z,16.00
2017-06-29T21:23:28.876Z,16.00
2017-06-29T21:25:56.674Z,16.00
2017-06-29T21:28:23.605Z,16.00
2017-06-29T21:30:50.605Z,16.00
2017-06-29T21:33:17.555Z,16.00
2017-06-29T21:35:45.290Z,16.00
2017-06-29T21:38:12.332Z,16.00
2017-06-29T21:40:39.323Z,16.10
2017-06-29T21:43:07.048Z,16.00
2017-06-29T21:45:33.999Z,16.00
2017-06-29T21:48:00.988Z,16.10
2017-06-29T21:50:27.950Z,16.10
2017-06-29T21:52:54.880Z,16.00
2017-06-29T21:55:21.851Z,16.00
2017-06-29T21:57:48.808Z,15.90
2017-06-29T22:00:15.776Z,16.00
2017-06-29T22:02:42.727Z,15.90
2017-06-29T22:05:09.719Z,16.00
2017-06-29T22:07:36.812Z,15.90
2017-06-29T22:10:03.764Z,16.00
2017-06-29T22:12:30.752Z,16.10
2017-06-29T22:14:57.819Z,16.10
2017-06-29T22:17:24.758Z,16.20
2017-06-29T22:19:51.715Z,16.20
2017-06-29T22:22:18.692Z,16.20
2017-06-29T22:24:45.643Z,16.20
2017-06-29T22:27:12.596Z,16.30
2017-06-29T22:29:39.543Z,16.40
2017-06-29T22:32:07.294Z,16.20
2017-06-29T22:34:34.244Z,16.20
2017-06-29T22:37:01.216Z,16.20
2017-06-29T22:39:28.307Z,16.10
2017-06-29T22:41:55.256Z,16.20
2017-06-29T22:44:22.229Z,16.10
2017-06-29T22:46:49.175Z,16.00
2017-06-29T22:49:16.151Z,16.00
2017-06-29T22:51:43.099Z,16.10
2017-06-29T22:54:10.077Z,16.10
2017-06-29T22:56:37.031Z,16.10
2017-06-29T22:59:04.015Z,16.20
2017-06-29T23:01:30.971Z,16.30
2017-06-29T23:03:57.960Z,16.20
2017-06-29T23:06:24.916Z,16.30
2017-06-29T23:08:51.863Z,16.30
2017-06-29T23:11:18.840Z,16.20
2017-06-29T23:13:45.791Z,16.00
2017-06-29T23:16:12.792Z,16.00
2017-06-29T23:18:39.743Z,15.90
2017-06-29T23:21:07.702Z,15.90
2017-06-29T23:23:34.687Z,16.00
2017-06-29T23:26:01.638Z,15.90
2017-06-29T23:28:28.596Z,15.90
2017-06-29T23:30:55.558Z,15.70
2017-06-29T23:33:22.534Z,15.70
2017-06-29T23:35:49.493Z,15.80
2017-06-29T23:38:17.258Z,15.90
2017-06-29T23:40:44.197Z,15.80
2017-06-29T23:43:11.133Z,15.80
2017-06-29T23:45:38.148Z,15.90
2017-06-29T23:48:05.108Z,16.00
2017-06-29T23:50:32.079Z,16.00
2017-06-29T23:52:59.085Z,16.00
2017-06-29T23:55:26.061Z,15.90
2017-06-29T23:57:53.011Z,15.90
